sensor_id;sensor_type;location;lat;lon;timestamp;temperature;humidity
8979;DHT22;4524;51.364;5.448;2023-04-24T00:01:25;10.70;99.90
8979;DHT22;4524;51.364;5.448;2023-04-24T00:03:53;10.70;99.90
8979;DHT22;4524;51.364;5.448;2023-04-24T00:06:21;10.70;99.90
8979;DHT22;4524;51.364;5.448;2023-04-24T00:08:50;10.70;99.90
8979;DHT22;4524;51.364;5.448;2023-04-24T00:11:17;10.70;99.90
8979;DHT22;4524;51.364;5.448;2023-04-24T00:13:46;10.70;99.90
8979;DHT22;4524;51.364;5.448;2023-04-24T00:16:14;10.60;99.90
8979;DHT22;4524;51.364;5.448;2023-04-24T00:18:43;10.60;99.90
8979;DHT22;4524;51.364;5.448;2023-04-24T00:21:11;10.70;99.90
8979;DHT22;4524;51.364;5.448;2023-04-24T00:23:39;10.60;99.90
8979;DHT22;4524;51.364;5.448;2023-04-24T00:26:07;10.60;99.90
8979;DHT22;4524;51.364;5.448;2023-04-24T00:28:35;10.50;99.90
8979;DHT22;4524;51.364;5.448;2023-04-24T00:31:03;10.60;99.90
8979;DHT22;4524;51.364;5.448;2023-04-24T00:33:31;10.50;99.90
8979;DHT22;4524;51.364;5.448;2023-04-24T00:36:00;10.60;99.90
8979;DHT22;4524;51.364;5.448;2023-04-24T00:38:27;10.60;99.90
8979;DHT22;4524;51.364;5.448;2023-04-24T00:40:55;10.50;99.90
8979;DHT22;4524;51.364;5.448;2023-04-24T00:43:23;10.50;99.90
8979;DHT22;4524;51.364;5.448;2023-04-24T00:45:51;10.50;99.90
8979;DHT22;4524;51.364;5.448;2023-04-24T00:48:18;10.50;99.90
8979;DHT22;4524;51.364;5.448;2023-04-24T00:50:47;10.50;99.90
8979;DHT22;4524;51.364;5.448;2023-04-24T00:53:16;10.40;99.90
8979;DHT22;4524;51.364;5.448;2023-04-24T00:55:44;10.50;99.90
8979;DHT22;4524;51.364;5.448;2023-04-24T00:58:12;10.50;99.90
8979;DHT22;4524;51.364;5.448;2023-04-24T01:00:40;10.50;99.90
8979;DHT22;4524;51.364;5.448;2023-04-24T01:03:08;10.50;99.90
8979;DHT22;4524;51.364;5.448;2023-04-24T01:05:37;10.50;99.90
8979;DHT22;4524;51.364;5.448;2023-04-24T01:08:05;10.40;99.90
8979;DHT22;4524;51.364;5.448;2023-04-24T01:10:35;10.40;99.90
8979;DHT22;4524;51.364;5.448;2023-04-24T01:13:04;10.40;99.90
8979;DHT22;4524;51.364;5.448;2023-04-24T01:15:31;10.40;99.90
8979;DHT22;4524;51.364;5.448;2023-04-24T01:17:59;10.40;99.90
8979;DHT22;4524;51.364;5.448;2023-04-24T01:20:27;10.40;99.90
8979;DHT22;4524;51.364;5.448;2023-04-24T01:22:57;10.40;99.90
8979;DHT22;4524;51.364;5.448;2023-04-24T01:25:25;10.40;99.90
8979;DHT22;4524;51.364;5.448;2023-04-24T01:27:56;10.50;99.90
8979;DHT22;4524;51.364;5.448;2023-04-24T01:30:24;10.40;99.90
8979;DHT22;4524;51.364;5.448;2023-04-24T01:32:52;10.40;99.90
8979;DHT22;4524;51.364;5.448;2023-04-24T01:35:19;10.50;99.90
8979;DHT22;4524;51.364;5.448;2023-04-24T01:37:47;10.50;99.90
8979;DHT22;4524;51.364;5.448;2023-04-24T01:40:16;10.50;99.90
8979;DHT22;4524;51.364;5.448;2023-04-24T01:42:44;10.50;99.90
8979;DHT22;4524;51.364;5.448;2023-04-24T01:45:12;10.40;99.90
8979;DHT22;4524;51.364;5.448;2023-04-24T01:47:40;10.40;99.90
8979;DHT22;4524;51.364;5.448;2023-04-24T01:50:08;10.40;99.90
8979;DHT22;4524;51.364;5.448;2023-04-24T01:52:38;10.50;99.90
8979;DHT22;4524;51.364;5.448;2023-04-24T01:55:06;10.60;99.90
8979;DHT22;4524;51.364;5.448;2023-04-24T01:57:36;10.50;98.30
8979;DHT22;4524;51.364;5.448;2023-04-24T02:00:04;10.50;95.30
8979;DHT22;4524;51.364;5.448;2023-04-24T02:02:39;10.50;89.50
8979;DHT22;4524;51.364;5.448;2023-04-24T02:05:07;10.50;84.70
8979;DHT22;4524;51.364;5.448;2023-04-24T02:07:36;10.50;97.30
8979;DHT22;4524;51.364;5.448;2023-04-24T02:10:04;10.50;81.20
8979;DHT22;4524;51.364;5.448;2023-04-24T02:12:32;10.50;81.40
8979;DHT22;4524;51.364;5.448;2023-04-24T02:15:01;10.50;65.00
8979;DHT22;4524;51.364;5.448;2023-04-24T02:17:29;10.40;81.60
8979;DHT22;4524;51.364;5.448;2023-04-24T02:19:57;10.40;94.10
8979;DHT22;4524;51.364;5.448;2023-04-24T02:22:25;10.40;99.90
8979;DHT22;4524;51.364;5.448;2023-04-24T02:24:52;10.40;69.50
8979;DHT22;4524;51.364;5.448;2023-04-24T02:27:20;10.40;91.60
8979;DHT22;4524;51.364;5.448;2023-04-24T02:29:48;10.50;83.10
8979;DHT22;4524;51.364;5.448;2023-04-24T02:32:17;10.40;64.00
8979;DHT22;4524;51.364;5.448;2023-04-24T02:34:45;10.40;56.60
8979;DHT22;4524;51.364;5.448;2023-04-24T02:37:13;10.30;38.30
8979;DHT22;4524;51.364;5.448;2023-04-24T02:39:42;10.40;32.60
8979;DHT22;4524;51.364;5.448;2023-04-24T02:42:10;10.30;42.50
8979;DHT22;4524;51.364;5.448;2023-04-24T02:44:38;10.20;19.00
8979;DHT22;4524;51.364;5.448;2023-04-24T02:47:06;10.20;32.70
8979;DHT22;4524;51.364;5.448;2023-04-24T02:49:36;10.30;37.30
8979;DHT22;4524;51.364;5.448;2023-04-24T02:52:04;10.30;28.90
8979;DHT22;4524;51.364;5.448;2023-04-24T02:54:32;10.30;33.90
8979;DHT22;4524;51.364;5.448;2023-04-24T02:56:59;10.30;37.70
8979;DHT22;4524;51.364;5.448;2023-04-24T02:59:27;10.40;18.10
8979;DHT22;4524;51.364;5.448;2023-04-24T03:01:55;10.40;25.10
8979;DHT22;4524;51.364;5.448;2023-04-24T03:04:23;10.30;19.70
8979;DHT22;4524;51.364;5.448;2023-04-24T03:06:53;10.30;5.90
8979;DHT22;4524;51.364;5.448;2023-04-24T03:09:21;10.30;14.80
8979;DHT22;4524;51.364;5.448;2023-04-24T03:11:49;10.30;29.60
8979;DHT22;4524;51.364;5.448;2023-04-24T03:14:17;10.20;6.80
8979;DHT22;4524;51.364;5.448;2023-04-24T03:16:44;10.30;51.60
8979;DHT22;4524;51.364;5.448;2023-04-24T03:19:12;10.30;19.60
8979;DHT22;4524;51.364;5.448;2023-04-24T03:21:52;10.30;20.50
8979;DHT22;4524;51.364;5.448;2023-04-24T03:24:21;10.30;2.70
8979;DHT22;4524;51.364;5.448;2023-04-24T03:26:49;10.30;1.00
8979;DHT22;4524;51.364;5.448;2023-04-24T03:29:32;10.30;22.20
8979;DHT22;4524;51.364;5.448;2023-04-24T03:32:00;10.30;9.90
8979;DHT22;4524;51.364;5.448;2023-04-24T03:34:28;10.30;16.50
8979;DHT22;4524;51.364;5.448;2023-04-24T03:36:57;10.30;14.40
8979;DHT22;4524;51.364;5.448;2023-04-24T03:39:27;10.30;15.60
8979;DHT22;4524;51.364;5.448;2023-04-24T03:41:55;10.30;4.20
8979;DHT22;4524;51.364;5.448;2023-04-24T03:44:32;10.20;1.00
8979;DHT22;4524;51.364;5.448;2023-04-24T03:47:00;10.20;29.90
8979;DHT22;4524;51.364;5.448;2023-04-24T03:49:29;10.20;10.50
8979;DHT22;4524;51.364;5.448;2023-04-24T03:51:57;10.20;12.40
8979;DHT22;4524;51.364;5.448;2023-04-24T03:54:28;10.20;24.90
8979;DHT22;4524;51.364;5.448;2023-04-24T03:56:56;10.20;9.00
8979;DHT22;4524;51.364;5.448;2023-04-24T03:59:26;10.20;9.80
8979;DHT22;4524;51.364;5.448;2023-04-24T04:02:14;10.10;2.10
8979;DHT22;4524;51.364;5.448;2023-04-24T04:04:42;10.20;6.70
8979;DHT22;4524;51.364;5.448;2023-04-24T04:07:10;10.20;22.40
8979;DHT22;4524;51.364;5.448;2023-04-24T04:09:40;10.20;24.90
8979;DHT22;4524;51.364;5.448;2023-04-24T04:12:08;10.10;15.50
8979;DHT22;4524;51.364;5.448;2023-04-24T04:14:38;10.10;48.50
8979;DHT22;4524;51.364;5.448;2023-04-24T04:17:05;10.10;26.20
8979;DHT22;4524;51.364;5.448;2023-04-24T04:19:33;10.10;55.70
8979;DHT22;4524;51.364;5.448;2023-04-24T04:22:01;10.10;67.00
8979;DHT22;4524;51.364;5.448;2023-04-24T04:24:38;10.10;53.20
8979;DHT22;4524;51.364;5.448;2023-04-24T04:27:09;10.10;81.80
8979;DHT22;4524;51.364;5.448;2023-04-24T04:29:45;10.00;99.10
8979;DHT22;4524;51.364;5.448;2023-04-24T04:32:14;10.00;99.90
8979;DHT22;4524;51.364;5.448;2023-04-24T04:34:43;9.90;99.90
8979;DHT22;4524;51.364;5.448;2023-04-24T04:37:12;9.90;99.90
8979;DHT22;4524;51.364;5.448;2023-04-24T04:40:07;9.90;99.90
8979;DHT22;4524;51.364;5.448;2023-04-24T04:42:48;9.80;99.90
8979;DHT22;4524;51.364;5.448;2023-04-24T04:45:20;9.80;99.90
8979;DHT22;4524;51.364;5.448;2023-04-24T04:48:11;9.80;99.90
8979;DHT22;4524;51.364;5.448;2023-04-24T04:50:40;9.80;99.90
8979;DHT22;4524;51.364;5.448;2023-04-24T04:53:09;9.80;99.90
8979;DHT22;4524;51.364;5.448;2023-04-24T04:55:38;9.80;99.90
8979;DHT22;4524;51.364;5.448;2023-04-24T04:58:11;9.80;99.90
8979;DHT22;4524;51.364;5.448;2023-04-24T05:00:39;9.80;99.90
8979;DHT22;4524;51.364;5.448;2023-04-24T05:03:24;9.80;99.90
8979;DHT22;4524;51.364;5.448;2023-04-24T05:05:57;9.80;99.90
8979;DHT22;4524;51.364;5.448;2023-04-24T05:08:26;9.80;99.90
8979;DHT22;4524;51.364;5.448;2023-04-24T05:10:55;9.80;99.90
8979;DHT22;4524;51.364;5.448;2023-04-24T05:13:26;9.80;99.90
8979;DHT22;4524;51.364;5.448;2023-04-24T05:16:08;9.80;99.90
8979;DHT22;4524;51.364;5.448;2023-04-24T05:18:36;9.70;99.90
8979;DHT22;4524;51.364;5.448;2023-04-24T05:21:06;9.80;99.90
8979;DHT22;4524;51.364;5.448;2023-04-24T05:23:35;9.80;99.90
8979;DHT22;4524;51.364;5.448;2023-04-24T05:26:02;9.80;99.90
8979;DHT22;4524;51.364;5.448;2023-04-24T05:28:34;9.70;99.90
8979;DHT22;4524;51.364;5.448;2023-04-24T05:31:07;9.80;99.90
8979;DHT22;4524;51.364;5.448;2023-04-24T05:33:35;9.70;99.90
8979;DHT22;4524;51.364;5.448;2023-04-24T05:36:04;9.60;99.90
8979;DHT22;4524;51.364;5.448;2023-04-24T05:38:33;9.60;99.90
8979;DHT22;4524;51.364;5.448;2023-04-24T05:41:01;9.60;99.90
8979;DHT22;4524;51.364;5.448;2023-04-24T05:43:29;9.60;99.90
8979;DHT22;4524;51.364;5.448;2023-04-24T05:45:58;9.60;99.90
8979;DHT22;4524;51.364;5.448;2023-04-24T05:48:26;9.60;99.90
8979;DHT22;4524;51.364;5.448;2023-04-24T05:50:53;9.40;99.90
8979;DHT22;4524;51.364;5.448;2023-04-24T05:53:22;9.50;99.90
8979;DHT22;4524;51.364;5.448;2023-04-24T05:55:50;9.50;99.90
8979;DHT22;4524;51.364;5.448;2023-04-24T05:58:18;9.40;99.90
8979;DHT22;4524;51.364;5.448;2023-04-24T06:00:47;9.40;99.90
8979;DHT22;4524;51.364;5.448;2023-04-24T06:03:16;9.40;99.90
8979;DHT22;4524;51.364;5.448;2023-04-24T06:05:44;9.30;99.90
8979;DHT22;4524;51.364;5.448;2023-04-24T06:08:12;9.30;99.90
8979;DHT22;4524;51.364;5.448;2023-04-24T06:10:42;9.20;99.90
8979;DHT22;4524;51.364;5.448;2023-04-24T06:13:10;9.20;99.90
8979;DHT22;4524;51.364;5.448;2023-04-24T06:15:43;9.30;99.90
8979;DHT22;4524;51.364;5.448;2023-04-24T06:18:17;9.20;99.90
8979;DHT22;4524;51.364;5.448;2023-04-24T06:20:47;9.10;99.90
8979;DHT22;4524;51.364;5.448;2023-04-24T06:23:15;9.10;1.00
8979;DHT22;4524;51.364;5.448;2023-04-24T06:25:42;9.10;99.90
8979;DHT22;4524;51.364;5.448;2023-04-24T06:28:11;9.20;1.00
8979;DHT22;4524;51.364;5.448;2023-04-24T06:30:57;9.10;1.00
8979;DHT22;4524;51.364;5.448;2023-04-24T06:33:26;9.10;1.00
8979;DHT22;4524;51.364;5.448;2023-04-24T06:35:54;9.00;83.90
8979;DHT22;4524;51.364;5.448;2023-04-24T06:38:21;9.10;91.70
8979;DHT22;4524;51.364;5.448;2023-04-24T06:40:49;9.10;51.20
8979;DHT22;4524;51.364;5.448;2023-04-24T06:43:17;9.10;55.50
8979;DHT22;4524;51.364;5.448;2023-04-24T06:45:45;9.10;15.50
8979;DHT22;4524;51.364;5.448;2023-04-24T06:48:13;9.20;1.00
8979;DHT22;4524;51.364;5.448;2023-04-24T06:50:43;9.20;1.00
8979;DHT22;4524;51.364;5.448;2023-04-24T06:53:10;9.30;1.00
8979;DHT22;4524;51.364;5.448;2023-04-24T06:55:39;9.20;1.00
8979;DHT22;4524;51.364;5.448;2023-04-24T06:58:07;9.20;1.00
8979;DHT22;4524;51.364;5.448;2023-04-24T07:00:34;9.30;73.30
8979;DHT22;4524;51.364;5.448;2023-04-24T07:03:02;9.20;99.90
8979;DHT22;4524;51.364;5.448;2023-04-24T07:05:31;9.20;37.90
8979;DHT22;4524;51.364;5.448;2023-04-24T07:08:02;9.20;29.00
8979;DHT22;4524;51.364;5.448;2023-04-24T07:10:30;9.20;71.90
8979;DHT22;4524;51.364;5.448;2023-04-24T07:13:00;9.20;96.50
8979;DHT22;4524;51.364;5.448;2023-04-24T07:15:29;9.30;99.90
8979;DHT22;4524;51.364;5.448;2023-04-24T07:17:58;9.30;99.90
8979;DHT22;4524;51.364;5.448;2023-04-24T07:20:28;9.40;99.90
8979;DHT22;4524;51.364;5.448;2023-04-24T07:22:56;9.40;99.90
8979;DHT22;4524;51.364;5.448;2023-04-24T07:25:25;9.40;91.70
8979;DHT22;4524;51.364;5.448;2023-04-24T07:27:53;9.40;99.90
8979;DHT22;4524;51.364;5.448;2023-04-24T07:30:21;9.50;99.90
8979;DHT22;4524;51.364;5.448;2023-04-24T07:32:49;9.40;6.70
8979;DHT22;4524;51.364;5.448;2023-04-24T07:35:17;9.40;98.80
8979;DHT22;4524;51.364;5.448;2023-04-24T07:37:46;9.30;1.00
8979;DHT22;4524;51.364;5.448;2023-04-24T07:40:14;9.30;1.00
8979;DHT22;4524;51.364;5.448;2023-04-24T07:42:43;9.30;1.00
8979;DHT22;4524;51.364;5.448;2023-04-24T07:45:11;9.30;99.90
8979;DHT22;4524;51.364;5.448;2023-04-24T07:47:38;9.30;1.00
8979;DHT22;4524;51.364;5.448;2023-04-24T07:50:06;9.20;1.00
8979;DHT22;4524;51.364;5.448;2023-04-24T07:52:34;9.30;1.00
8979;DHT22;4524;51.364;5.448;2023-04-24T07:55:02;9.20;1.00
8979;DHT22;4524;51.364;5.448;2023-04-24T07:57:31;9.30;1.00
8979;DHT22;4524;51.364;5.448;2023-04-24T08:00:00;9.40;1.00
8979;DHT22;4524;51.364;5.448;2023-04-24T08:02:36;9.30;1.00
8979;DHT22;4524;51.364;5.448;2023-04-24T08:05:05;9.40;1.00
8979;DHT22;4524;51.364;5.448;2023-04-24T08:07:33;9.50;1.00
8979;DHT22;4524;51.364;5.448;2023-04-24T08:10:01;9.50;1.00
8979;DHT22;4524;51.364;5.448;2023-04-24T08:12:29;9.60;99.90
8979;DHT22;4524;51.364;5.448;2023-04-24T08:14:57;9.60;99.90
8979;DHT22;4524;51.364;5.448;2023-04-24T08:17:26;9.70;99.90
8979;DHT22;4524;51.364;5.448;2023-04-24T08:19:54;9.70;1.00
8979;DHT22;4524;51.364;5.448;2023-04-24T08:22:27;9.80;99.90
8979;DHT22;4524;51.364;5.448;2023-04-24T08:24:55;9.80;99.90
8979;DHT22;4524;51.364;5.448;2023-04-24T08:27:23;9.80;99.90
8979;DHT22;4524;51.364;5.448;2023-04-24T08:29:52;9.80;99.90
8979;DHT22;4524;51.364;5.448;2023-04-24T08:32:20;9.80;99.90
8979;DHT22;4524;51.364;5.448;2023-04-24T08:34:49;9.70;99.90
8979;DHT22;4524;51.364;5.448;2023-04-24T08:37:19;9.80;99.90
8979;DHT22;4524;51.364;5.448;2023-04-24T08:39:47;9.80;99.90
8979;DHT22;4524;51.364;5.448;2023-04-24T08:42:15;9.90;99.90
8979;DHT22;4524;51.364;5.448;2023-04-24T08:44:44;10.00;99.90
8979;DHT22;4524;51.364;5.448;2023-04-24T08:47:12;10.10;99.90
8979;DHT22;4524;51.364;5.448;2023-04-24T08:49:41;10.10;82.20
8979;DHT22;4524;51.364;5.448;2023-04-24T08:52:11;10.10;99.90
8979;DHT22;4524;51.364;5.448;2023-04-24T08:54:39;10.20;99.90
8979;DHT22;4524;51.364;5.448;2023-04-24T08:57:09;10.40;97.00
8979;DHT22;4524;51.364;5.448;2023-04-24T08:59:38;10.50;99.90
8979;DHT22;4524;51.364;5.448;2023-04-24T09:02:06;10.50;79.80
8979;DHT22;4524;51.364;5.448;2023-04-24T09:04:34;10.50;50.20
8979;DHT22;4524;51.364;5.448;2023-04-24T09:07:02;10.30;77.50
8979;DHT22;4524;51.364;5.448;2023-04-24T09:09:32;10.10;99.90
8979;DHT22;4524;51.364;5.448;2023-04-24T09:12:00;10.10;99.90
8979;DHT22;4524;51.364;5.448;2023-04-24T09:14:30;10.00;99.90
8979;DHT22;4524;51.364;5.448;2023-04-24T09:16:58;10.10;91.80
8979;DHT22;4524;51.364;5.448;2023-04-24T09:19:26;10.20;67.80
8979;DHT22;4524;51.364;5.448;2023-04-24T09:21:54;10.20;54.70
8979;DHT22;4524;51.364;5.448;2023-04-24T09:24:22;10.50;60.60
8979;DHT22;4524;51.364;5.448;2023-04-24T09:26:57;10.70;76.50
8979;DHT22;4524;51.364;5.448;2023-04-24T09:29:25;11.00;30.20
8979;DHT22;4524;51.364;5.448;2023-04-24T09:31:53;11.20;1.00
8979;DHT22;4524;51.364;5.448;2023-04-24T09:34:21;11.40;1.00
8979;DHT22;4524;51.364;5.448;2023-04-24T09:36:49;11.10;1.00
8979;DHT22;4524;51.364;5.448;2023-04-24T09:39:17;11.00;1.00
8979;DHT22;4524;51.364;5.448;2023-04-24T09:41:47;10.90;1.00
8979;DHT22;4524;51.364;5.448;2023-04-24T09:44:17;11.00;1.00
8979;DHT22;4524;51.364;5.448;2023-04-24T09:46:49;11.00;1.00
8979;DHT22;4524;51.364;5.448;2023-04-24T09:49:21;11.00;1.00
8979;DHT22;4524;51.364;5.448;2023-04-24T09:51:49;10.90;1.00
8979;DHT22;4524;51.364;5.448;2023-04-24T09:54:18;10.90;99.90
8979;DHT22;4524;51.364;5.448;2023-04-24T09:56:48;11.00;99.90
8979;DHT22;4524;51.364;5.448;2023-04-24T09:59:18;11.20;1.00
8979;DHT22;4524;51.364;5.448;2023-04-24T10:01:46;11.40;99.90
8979;DHT22;4524;51.364;5.448;2023-04-24T10:04:16;11.50;1.00
8979;DHT22;4524;51.364;5.448;2023-04-24T10:06:44;11.80;99.90
8979;DHT22;4524;51.364;5.448;2023-04-24T10:09:12;12.10;1.00
8979;DHT22;4524;51.364;5.448;2023-04-24T10:11:42;12.00;99.90
8979;DHT22;4524;51.364;5.448;2023-04-24T10:14:11;11.70;99.90
8979;DHT22;4524;51.364;5.448;2023-04-24T10:16:41;11.50;99.90
8979;DHT22;4524;51.364;5.448;2023-04-24T10:19:09;11.30;99.90
8979;DHT22;4524;51.364;5.448;2023-04-24T10:21:37;11.00;99.90
8979;DHT22;4524;51.364;5.448;2023-04-24T10:24:08;10.80;99.90
8979;DHT22;4524;51.364;5.448;2023-04-24T10:26:36;10.90;1.00
8979;DHT22;4524;51.364;5.448;2023-04-24T10:29:05;10.70;99.90
8979;DHT22;4524;51.364;5.448;2023-04-24T10:31:36;10.60;1.00
8979;DHT22;4524;51.364;5.448;2023-04-24T10:34:05;10.60;1.00
8979;DHT22;4524;51.364;5.448;2023-04-24T10:36:33;10.70;1.00
8979;DHT22;4524;51.364;5.448;2023-04-24T10:39:02;10.80;99.90
8979;DHT22;4524;51.364;5.448;2023-04-24T10:41:31;10.90;99.90
8979;DHT22;4524;51.364;5.448;2023-04-24T10:44:05;10.90;1.00
8979;DHT22;4524;51.364;5.448;2023-04-24T10:46:33;10.80;99.90
8979;DHT22;4524;51.364;5.448;2023-04-24T10:49:03;10.80;99.90
8979;DHT22;4524;51.364;5.448;2023-04-24T10:51:44;10.90;99.90
8979;DHT22;4524;51.364;5.448;2023-04-24T10:54:21;10.90;99.90
8979;DHT22;4524;51.364;5.448;2023-04-24T10:56:49;11.10;99.90
8979;DHT22;4524;51.364;5.448;2023-04-24T10:59:23;11.30;99.90
8979;DHT22;4524;51.364;5.448;2023-04-24T11:01:52;11.50;99.90
8979;DHT22;4524;51.364;5.448;2023-04-24T11:04:28;11.40;99.90
8979;DHT22;4524;51.364;5.448;2023-04-24T11:06:58;11.40;99.90
8979;DHT22;4524;51.364;5.448;2023-04-24T11:09:26;11.30;99.90
8979;DHT22;4524;51.364;5.448;2023-04-24T11:12:03;11.30;99.90
8979;DHT22;4524;51.364;5.448;2023-04-24T11:17:27;11.30;99.90
8979;DHT22;4524;51.364;5.448;2023-04-24T11:20:00;11.40;99.90
8979;DHT22;4524;51.364;5.448;2023-04-24T11:22:39;11.50;99.90
8979;DHT22;4524;51.364;5.448;2023-04-24T11:25:07;11.70;99.90
8979;DHT22;4524;51.364;5.448;2023-04-24T11:27:38;11.80;99.90
8979;DHT22;4524;51.364;5.448;2023-04-24T11:30:06;12.00;99.90
8979;DHT22;4524;51.364;5.448;2023-04-24T11:32:35;11.90;99.90
8979;DHT22;4524;51.364;5.448;2023-04-24T11:35:04;12.00;99.90
8979;DHT22;4524;51.364;5.448;2023-04-24T11:37:33;12.00;99.90
8979;DHT22;4524;51.364;5.448;2023-04-24T11:40:03;12.00;99.90
8979;DHT22;4524;51.364;5.448;2023-04-24T11:42:34;12.20;99.90
8979;DHT22;4524;51.364;5.448;2023-04-24T11:45:06;12.10;99.90
8979;DHT22;4524;51.364;5.448;2023-04-24T11:47:34;11.90;99.90
8979;DHT22;4524;51.364;5.448;2023-04-24T11:50:03;11.70;99.90
8979;DHT22;4524;51.364;5.448;2023-04-24T11:52:31;11.80;99.90
8979;DHT22;4524;51.364;5.448;2023-04-24T11:54:59;11.80;99.90
8979;DHT22;4524;51.364;5.448;2023-04-24T11:57:28;11.80;99.90
8979;DHT22;4524;51.364;5.448;2023-04-24T12:00:00;11.90;99.90
8979;DHT22;4524;51.364;5.448;2023-04-24T12:02:37;12.00;99.90
8979;DHT22;4524;51.364;5.448;2023-04-24T12:05:06;12.20;99.90
8979;DHT22;4524;51.364;5.448;2023-04-24T12:07:39;12.30;99.90
8979;DHT22;4524;51.364;5.448;2023-04-24T12:10:09;12.50;99.90
8979;DHT22;4524;51.364;5.448;2023-04-24T12:12:38;12.50;99.90
8979;DHT22;4524;51.364;5.448;2023-04-24T12:15:06;12.70;99.90
8979;DHT22;4524;51.364;5.448;2023-04-24T12:17:34;12.60;99.90
8979;DHT22;4524;51.364;5.448;2023-04-24T12:20:03;12.70;99.90
8979;DHT22;4524;51.364;5.448;2023-04-24T12:22:45;12.90;99.90
8979;DHT22;4524;51.364;5.448;2023-04-24T12:25:13;13.00;99.90
8979;DHT22;4524;51.364;5.448;2023-04-24T12:27:42;13.00;99.90
8979;DHT22;4524;51.364;5.448;2023-04-24T12:30:11;12.90;99.90
8979;DHT22;4524;51.364;5.448;2023-04-24T12:32:42;12.70;99.90
8979;DHT22;4524;51.364;5.448;2023-04-24T12:35:10;12.60;99.90
8979;DHT22;4524;51.364;5.448;2023-04-24T12:37:41;12.60;99.90
8979;DHT22;4524;51.364;5.448;2023-04-24T12:40:12;12.40;99.90
8979;DHT22;4524;51.364;5.448;2023-04-24T12:42:42;12.40;99.90
8979;DHT22;4524;51.364;5.448;2023-04-24T12:45:10;12.10;99.90
8979;DHT22;4524;51.364;5.448;2023-04-24T12:47:39;11.90;99.90
8979;DHT22;4524;51.364;5.448;2023-04-24T12:50:07;12.00;99.90
8979;DHT22;4524;51.364;5.448;2023-04-24T12:52:36;12.10;99.90
8979;DHT22;4524;51.364;5.448;2023-04-24T12:55:05;12.10;99.90
8979;DHT22;4524;51.364;5.448;2023-04-24T12:57:34;11.90;99.90
8979;DHT22;4524;51.364;5.448;2023-04-24T13:00:05;11.80;99.90
8979;DHT22;4524;51.364;5.448;2023-04-24T13:02:33;11.90;99.90
8979;DHT22;4524;51.364;5.448;2023-04-24T13:05:01;12.20;99.90
8979;DHT22;4524;51.364;5.448;2023-04-24T13:07:29;12.30;99.90
8979;DHT22;4524;51.364;5.448;2023-04-24T13:09:57;12.60;99.90
8979;DHT22;4524;51.364;5.448;2023-04-24T13:12:25;12.80;99.90
8979;DHT22;4524;51.364;5.448;2023-04-24T13:14:53;12.70;99.90
8979;DHT22;4524;51.364;5.448;2023-04-24T13:17:22;12.70;99.90
8979;DHT22;4524;51.364;5.448;2023-04-24T13:19:51;12.70;99.90
8979;DHT22;4524;51.364;5.448;2023-04-24T13:22:18;12.80;99.90
8979;DHT22;4524;51.364;5.448;2023-04-24T13:24:46;12.70;99.90
8979;DHT22;4524;51.364;5.448;2023-04-24T13:27:15;12.90;99.90
8979;DHT22;4524;51.364;5.448;2023-04-24T13:29:43;13.10;99.90
8979;DHT22;4524;51.364;5.448;2023-04-24T13:32:11;13.20;99.90
8979;DHT22;4524;51.364;5.448;2023-04-24T13:34:40;13.20;99.90
8979;DHT22;4524;51.364;5.448;2023-04-24T13:37:08;13.10;99.90
8979;DHT22;4524;51.364;5.448;2023-04-24T13:39:36;13.00;99.90
8979;DHT22;4524;51.364;5.448;2023-04-24T13:42:03;12.80;99.90
8979;DHT22;4524;51.364;5.448;2023-04-24T13:44:31;12.70;99.90
8979;DHT22;4524;51.364;5.448;2023-04-24T13:46:59;12.90;99.90
8979;DHT22;4524;51.364;5.448;2023-04-24T13:49:27;13.00;99.90
8979;DHT22;4524;51.364;5.448;2023-04-24T13:51:56;13.10;99.90
8979;DHT22;4524;51.364;5.448;2023-04-24T13:54:23;13.00;99.90
8979;DHT22;4524;51.364;5.448;2023-04-24T13:56:52;13.00;99.90
8979;DHT22;4524;51.364;5.448;2023-04-24T13:59:20;13.10;99.90
8979;DHT22;4524;51.364;5.448;2023-04-24T14:01:48;13.20;99.90
8979;DHT22;4524;51.364;5.448;2023-04-24T14:04:16;13.20;99.90
8979;DHT22;4524;51.364;5.448;2023-04-24T14:06:44;13.20;99.90
8979;DHT22;4524;51.364;5.448;2023-04-24T14:09:13;13.00;99.90
8979;DHT22;4524;51.364;5.448;2023-04-24T14:11:41;13.10;99.90
8979;DHT22;4524;51.364;5.448;2023-04-24T14:14:11;13.20;99.90
8979;DHT22;4524;51.364;5.448;2023-04-24T14:16:38;13.20;99.90
8979;DHT22;4524;51.364;5.448;2023-04-24T14:19:06;13.30;99.90
8979;DHT22;4524;51.364;5.448;2023-04-24T14:21:34;13.30;99.90
8979;DHT22;4524;51.364;5.448;2023-04-24T14:24:02;13.10;99.90
8979;DHT22;4524;51.364;5.448;2023-04-24T14:26:31;13.00;99.90
8979;DHT22;4524;51.364;5.448;2023-04-24T14:28:59;12.90;99.90
8979;DHT22;4524;51.364;5.448;2023-04-24T14:31:30;13.00;99.90
8979;DHT22;4524;51.364;5.448;2023-04-24T14:33:57;12.90;99.90
8979;DHT22;4524;51.364;5.448;2023-04-24T14:36:25;12.80;99.90
8979;DHT22;4524;51.364;5.448;2023-04-24T14:38:53;12.80;99.90
8979;DHT22;4524;51.364;5.448;2023-04-24T14:41:21;12.20;99.90
8979;DHT22;4524;51.364;5.448;2023-04-24T14:43:50;11.80;99.90
8979;DHT22;4524;51.364;5.448;2023-04-24T14:46:18;11.50;99.90
8979;DHT22;4524;51.364;5.448;2023-04-24T14:48:46;11.30;99.90
8979;DHT22;4524;51.364;5.448;2023-04-24T14:51:13;11.30;99.90
8979;DHT22;4524;51.364;5.448;2023-04-24T14:53:41;11.10;99.90
8979;DHT22;4524;51.364;5.448;2023-04-24T14:56:09;11.20;99.90
8979;DHT22;4524;51.364;5.448;2023-04-24T14:58:37;11.30;99.90
8979;DHT22;4524;51.364;5.448;2023-04-24T15:01:06;11.50;99.90
8979;DHT22;4524;51.364;5.448;2023-04-24T15:03:34;11.40;99.90
8979;DHT22;4524;51.364;5.448;2023-04-24T15:06:02;11.70;99.90
8979;DHT22;4524;51.364;5.448;2023-04-24T15:08:30;11.70;99.90
8979;DHT22;4524;51.364;5.448;2023-04-24T15:10:57;11.70;99.90
8979;DHT22;4524;51.364;5.448;2023-04-24T15:13:25;11.60;99.90
8979;DHT22;4524;51.364;5.448;2023-04-24T15:15:53;11.70;99.90
8979;DHT22;4524;51.364;5.448;2023-04-24T15:18:22;12.00;99.90
8979;DHT22;4524;51.364;5.448;2023-04-24T15:20:50;12.30;99.90
8979;DHT22;4524;51.364;5.448;2023-04-24T15:23:17;12.30;99.90
8979;DHT22;4524;51.364;5.448;2023-04-24T15:25:45;12.40;99.90
8979;DHT22;4524;51.364;5.448;2023-04-24T15:28:13;12.20;99.90
8979;DHT22;4524;51.364;5.448;2023-04-24T15:30:42;12.20;99.90
8979;DHT22;4524;51.364;5.448;2023-04-24T15:33:10;12.10;99.90
8979;DHT22;4524;51.364;5.448;2023-04-24T15:35:39;12.10;99.90
8979;DHT22;4524;51.364;5.448;2023-04-24T15:38:07;12.10;99.90
8979;DHT22;4524;51.364;5.448;2023-04-24T15:40:35;11.90;99.90
8979;DHT22;4524;51.364;5.448;2023-04-24T15:43:03;12.00;99.90
8979;DHT22;4524;51.364;5.448;2023-04-24T15:45:31;12.00;99.90
8979;DHT22;4524;51.364;5.448;2023-04-24T15:48:00;11.90;99.90
8979;DHT22;4524;51.364;5.448;2023-04-24T15:50:27;11.90;99.90
8979;DHT22;4524;51.364;5.448;2023-04-24T15:52:57;11.90;99.90
8979;DHT22;4524;51.364;5.448;2023-04-24T15:55:24;12.00;99.90
8979;DHT22;4524;51.364;5.448;2023-04-24T15:57:52;12.10;99.90
8979;DHT22;4524;51.364;5.448;2023-04-24T16:00:20;12.20;99.90
8979;DHT22;4524;51.364;5.448;2023-04-24T16:02:48;12.30;99.90
8979;DHT22;4524;51.364;5.448;2023-04-24T16:05:17;12.40;99.90
8979;DHT22;4524;51.364;5.448;2023-04-24T16:07:45;12.40;99.90
8979;DHT22;4524;51.364;5.448;2023-04-24T16:10:14;12.40;99.90
8979;DHT22;4524;51.364;5.448;2023-04-24T16:12:42;12.30;99.90
8979;DHT22;4524;51.364;5.448;2023-04-24T16:15:10;12.30;99.90
8979;DHT22;4524;51.364;5.448;2023-04-24T16:17:38;12.10;99.90
8979;DHT22;4524;51.364;5.448;2023-04-24T16:20:06;12.20;99.90
8979;DHT22;4524;51.364;5.448;2023-04-24T16:22:34;12.20;99.90